East Williston, New York
Current Conditions -  °F | °C
As of 1:51 PM on Sunday 21 Dec 2014 (Local Time) from KJFK Reporting Station
Overcast Overcast  
Wind Chill: 30°   Ceiling: 2400
Heat Index: 37°   Visibility: 10mi
Dew Point: 27°   Wind: 10mph
Humidity: 67%   Direction: 310°NW
Pressure: 30.29"   Gusts: NA
Location:  40.7596°N, 73.6421°W
Report Text: KJFK 211851Z 31009KT 10SM SCT017 OVC024 03/M03 A3029 RMK AO2 SLP257 T00281028 $
Loading
Personal Weather Stations






























Interactive Weather Map New forecast layout! Learn more

10-Day Weather Forecast

Advertisements
Track Severe Weather on mobile